MET'MAP v2.0
soon released !

Expected late october,
this new version will be
more efficient, smarter,
and hosted on a brand new
server x3 powerfull...
...and still free !


Not compatible ?
Try the mobile version !

LOG IN : | Subscribe | Disclaimer | Who is Orbifly ? |
ICAO code :

TAF - LSZS Samedan - 20 Feb 2020 23:02 UTC
Data Sources :     NOAA   


- Airport Elevation : 5600 ft
- IATA code : SMV
- No reported NOTAMs.


LSZS - Samedan

Latest METAR recorded : 2015/08/11 07:50 LSZS 110750Z VRB01KT 9999 SCT030 14/11 Q1022
TAF TAF LSZS
Valid from the 20 at 15:00 until the 21 at 00:00 UTC


201425Z 2015/2024 22010KT 9999 SCT075 TX04/2015Z
BECMG 2016/2018 VRB03KT CAVOK

Source NOAA
ATIS : +41 81 834 93 24


MET'MAP, your aeronautical weather chart ! - Copyright ORBIFLY December 2007

Programming & Development : Alexandra Zaïnal
Co-Developer : Marc-Olivier Méhu
Technical & hardware support : Manuel Goepfert
Concept & Financing : Baudouin d'Aumeries